Time;durP1;ratioP1;P1;durP2;ratioP2;P2;SDS_P1;SDS_P2;PMS_P1;PMS_P2;Temp;Humidity;BMP_temperature;BMP_pressure;BME280_temperature;BME280_humidity;BME280_pressure;Samples;Min_cycle;Max_cycle;Signal;HPM_P1;HPM_P2
2022/08/25 00:00:43;;;;;;;3.75;2.45;;;;;;;;;;5260926;28;20031;-68
2022/08/25 00:03:15;;;;;;;4.97;2.95;;;;;;;;;;5261283;28;20045;-68
2022/08/25 00:05:46;;;;;;;4.43;2.30;;;;;;;;;;5260303;28;20012;-67
2022/08/25 00:08:17;;;;;;;3.88;3.10;;;;;;;;;;5261497;28;20067;-67
2022/08/25 00:10:49;;;;;;;6.85;3.10;;;;;;;;;;5259846;28;20045;-68
2022/08/25 00:13:20;;;;;;;4.90;3.00;;;;;;;;;;5261296;28;20104;-67
2022/08/25 00:15:52;;;;;;;4.77;3.80;;;;;;;;;;5260578;28;20047;-68
2022/08/25 00:18:23;;;;;;;3.10;2.80;;;;;;;;;;5260494;28;20302;-67
2022/08/25 00:20:54;;;;;;;4.65;3.78;;;;;;;;;;5260745;28;20354;-67
2022/08/25 00:23:25;;;;;;;6.70;3.15;;;;;;;;;;5260509;28;20029;-65
2022/08/25 00:25:56;;;;;;;4.77;3.70;;;;;;;;;;5260241;28;20017;-66
2022/08/25 00:28:29;;;;;;;6.25;3.67;;;;;;;;;;5260514;28;20298;-67
2022/08/25 00:31:00;;;;;;;5.03;3.63;;;;;;;;;;5261098;28;20353;-66
2022/08/25 00:33:31;;;;;;;5.13;3.55;;;;;;;;;;5259615;28;20079;-67
2022/08/25 00:36:03;;;;;;;6.07;3.63;;;;;;;;;;5260824;28;20021;-67
2022/08/25 00:38:36;;;;;;;3.20;2.85;;;;;;;;;;5259489;28;20017;-67
2022/08/25 00:41:10;;;;;;;4.60;3.28;;;;;;;;;;5261052;28;20337;-67
2022/08/25 00:43:44;;;;;;;5.35;4.03;;;;;;;;;;5260279;28;20065;-67
2022/08/25 00:46:17;;;;;;;5.57;4.60;;;;;;;;;;5260094;28;20060;-67
2022/08/25 00:48:54;;;;;;;5.25;4.82;;;;;;;;;;5260071;28;20033;-67
2022/08/25 00:51:48;;;;;;;5.13;4.70;;;;;;;;;;5259945;28;20017;-68
2022/08/25 00:54:22;;;;;;;6.03;5.28;;;;;;;;;;5259909;28;20044;-67
2022/08/25 00:56:53;;;;;;;6.28;5.28;;;;;;;;;;5260036;28;20025;-68
2022/08/25 00:59:25;;;;;;;8.90;5.75;;;;;;;;;;5260217;28;20021;-68
2022/08/25 01:01:57;;;;;;;5.95;4.57;;;;;;;;;;5259732;28;20052;-68
2022/08/25 01:04:29;;;;;;;6.63;5.75;;;;;;;;;;5259992;28;20021;-68
2022/08/25 01:07:00;;;;;;;6.85;6.20;;;;;;;;;;5259876;28;20412;-67
2022/08/25 01:09:32;;;;;;;8.75;6.50;;;;;;;;;;5259809;28;20056;-67
2022/08/25 01:12:03;;;;;;;7.55;6.95;;;;;;;;;;5264039;28;20491;-67
2022/08/25 01:14:35;;;;;;;10.38;6.57;;;;;;;;;;5263657;28;20021;-67
2022/08/25 01:17:06;;;;;;;9.02;6.78;;;;;;;;;;5264610;28;20032;-67
2022/08/25 01:19:37;;;;;;;8.68;6.45;;;;;;;;;;5264056;28;20479;-67
2022/08/25 01:22:10;;;;;;;7.03;6.43;;;;;;;;;;5263848;28;20078;-67
2022/08/25 01:24:55;;;;;;;11.68;6.07;;;;;;;;;;5264144;28;20082;-68
2022/08/25 01:27:26;;;;;;;9.23;6.57;;;;;;;;;;5263613;28;20078;-67
2022/08/25 01:29:57;;;;;;;7.85;6.20;;;;;;;;;;5263712;28;20029;-67
2022/08/25 01:32:32;;;;;;;8.48;5.95;;;;;;;;;;5263880;28;20495;-68
2022/08/25 01:35:03;;;;;;;10.25;6.85;;;;;;;;;;5263485;28;20021;-68
2022/08/25 01:37:34;;;;;;;9.02;5.85;;;;;;;;;;5263531;28;20521;-67
2022/08/25 01:40:06;;;;;;;9.70;6.40;;;;;;;;;;5263376;28;20017;-67
2022/08/25 01:42:45;;;;;;;6.43;5.72;;;;;;;;;;5261618;28;20071;-67
2022/08/25 01:45:16;;;;;;;6.80;5.47;;;;;;;;;;5263029;28;20516;-67
2022/08/25 01:47:47;;;;;;;5.90;5.38;;;;;;;;;;5262501;28;20170;-68
2022/08/25 01:50:18;;;;;;;6.07;5.43;;;;;;;;;;5262181;28;20017;-67
2022/08/25 01:53:06;;;;;;;9.45;6.25;;;;;;;;;;5262397;28;20278;-68
2022/08/25 01:55:54;;;;;;;6.55;5.38;;;;;;;;;;5262309;28;20384;-68
2022/08/25 01:58:28;;;;;;;8.77;5.75;;;;;;;;;;5262765;28;20107;-68
2022/08/25 02:01:01;;;;;;;8.40;5.47;;;;;;;;;;5262764;28;20116;-68
2022/08/25 02:03:35;;;;;;;6.82;5.25;;;;;;;;;;5261206;28;20089;-67
2022/08/25 02:06:06;;;;;;;7.90;5.88;;;;;;;;;;5262690;28;20055;-67
2022/08/25 02:08:37;;;;;;;7.95;5.97;;;;;;;;;;5262153;28;20037;-68
2022/08/25 02:11:10;;;;;;;7.82;5.45;;;;;;;;;;5261757;28;20052;-67
2022/08/25 02:13:41;;;;;;;6.30;5.47;;;;;;;;;;5262056;28;20017;-67
2022/08/25 02:16:19;;;;;;;6.63;5.07;;;;;;;;;;5262511;28;20032;-69
2022/08/25 02:18:51;;;;;;;8.52;5.90;;;;;;;;;;5261097;28;20271;-67
2022/08/25 02:21:23;;;;;;;5.30;4.78;;;;;;;;;;5261778;28;20104;-69
2022/08/25 02:23:55;;;;;;;14.43;5.32;;;;;;;;;;5261379;28;20095;-67
2022/08/25 02:26:26;;;;;;;6.75;5.47;;;;;;;;;;5260890;28;20025;-67
2022/08/25 02:28:58;;;;;;;6.82;5.30;;;;;;;;;;5262189;28;20433;-67
2022/08/25 02:31:30;;;;;;;5.78;4.63;;;;;;;;;;5261044;28;20029;-67
2022/08/25 02:34:01;;;;;;;7.55;5.30;;;;;;;;;;5262303;28;20056;-67
2022/08/25 02:36:33;;;;;;;11.77;5.70;;;;;;;;;;5261548;28;20045;-67
2022/08/25 02:39:05;;;;;;;6.28;5.53;;;;;;;;;;5261331;28;20100;-67
2022/08/25 02:41:37;;;;;;;7.88;5.68;;;;;;;;;;5261330;28;20408;-67
2022/08/25 02:44:08;;;;;;;8.20;5.43;;;;;;;;;;5262412;28;20127;-67
2022/08/25 02:46:40;;;;;;;8.35;5.25;;;;;;;;;;5260750;28;20107;-67
2022/08/25 02:49:11;;;;;;;5.53;4.90;;;;;;;;;;5261912;28;20044;-67
2022/08/25 02:51:42;;;;;;;6.10;5.50;;;;;;;;;;5261330;28;20078;-67
2022/08/25 02:54:14;;;;;;;11.87;5.13;;;;;;;;;;5260968;28;20021;-68
2022/08/25 02:56:46;;;;;;;6.43;5.43;;;;;;;;;;5261477;28;20264;-67
2022/08/25 02:59:18;;;;;;;7.45;5.18;;;;;;;;;;5260967;28;20135;-67
2022/08/25 03:01:49;;;;;;;6.40;4.90;;;;;;;;;;5261044;28;20112;-67
2022/08/25 03:04:20;;;;;;;7.40;4.72;;;;;;;;;;5261459;28;20116;-68
2022/08/25 03:06:51;;;;;;;7.35;4.95;;;;;;;;;;5260147;28;20364;-67
2022/08/25 03:09:23;;;;;;;6.75;4.53;;;;;;;;;;5261643;28;20534;-67
2022/08/25 03:11:54;;;;;;;6.22;4.60;;;;;;;;;;5261626;28;20044;-67
2022/08/25 03:14:25;;;;;;;10.98;4.80;;;;;;;;;;5260603;28;20104;-67
2022/08/25 03:16:56;;;;;;;9.60;4.38;;;;;;;;;;5261807;28;20009;-67
2022/08/25 03:19:27;;;;;;;6.28;4.68;;;;;;;;;;5261362;28;20025;-67
2022/08/25 03:21:58;;;;;;;9.52;4.38;;;;;;;;;;5260870;28;20074;-67
2022/08/25 03:24:30;;;;;;;7.60;4.43;;;;;;;;;;5260794;28;20169;-67
2022/08/25 03:27:01;;;;;;;9.17;4.43;;;;;;;;;;5261210;28;20279;-67
2022/08/25 03:29:32;;;;;;;8.20;4.57;;;;;;;;;;5259476;28;20377;-67
2022/08/25 03:32:04;;;;;;;7.95;4.43;;;;;;;;;;5261182;28;20268;-67
2022/08/25 03:34:35;;;;;;;8.80;4.30;;;;;;;;;;5259301;28;20059;-67
2022/08/25 03:37:07;;;;;;;5.35;4.13;;;;;;;;;;5260890;28;20016;-67
2022/08/25 03:39:38;;;;;;;5.32;3.90;;;;;;;;;;5260151;28;20028;-68
2022/08/25 03:42:11;;;;;;;10.13;4.78;;;;;;;;;;5260000;28;20127;-67
2022/08/25 03:44:42;;;;;;;6.80;4.10;;;;;;;;;;5260319;28;20345;-67
2022/08/25 03:47:13;;;;;;;9.05;3.95;;;;;;;;;;5260891;28;20020;-67
2022/08/25 03:49:45;;;;;;;8.10;4.60;;;;;;;;;;5259201;28;20078;-67
2022/08/25 03:52:17;;;;;;;7.13;4.13;;;;;;;;;;5260539;28;20495;-67
2022/08/25 03:54:48;;;;;;;7.90;3.88;;;;;;;;;;5259995;28;20071;-67
2022/08/25 03:57:19;;;;;;;9.83;4.00;;;;;;;;;;5260137;28;20423;-67
2022/08/25 03:59:51;;;;;;;8.65;3.70;;;;;;;;;;5260427;28;20279;-67
2022/08/25 04:02:22;;;;;;;6.30;3.75;;;;;;;;;;5260375;28;20044;-67
2022/08/25 04:04:53;;;;;;;11.60;4.30;;;;;;;;;;5258921;28;20013;-68
2022/08/25 04:07:25;;;;;;;7.47;4.22;;;;;;;;;;5260195;28;20094;-68
2022/08/25 04:09:56;;;;;;;7.97;4.15;;;;;;;;;;5259636;28;20029;-67
2022/08/25 04:12:27;;;;;;;7.22;3.72;;;;;;;;;;5259543;28;20029;-68
2022/08/25 04:14:58;;;;;;;11.27;3.88;;;;;;;;;;5260371;28;20028;-68
2022/08/25 04:17:30;;;;;;;6.30;3.73;;;;;;;;;;5258771;28;20032;-68
2022/08/25 04:20:01;;;;;;;8.65;3.25;;;;;;;;;;5260289;28;20291;-68
2022/08/25 04:22:32;;;;;;;6.68;3.67;;;;;;;;;;5259652;28;20111;-68
2022/08/25 04:25:05;;;;;;;9.75;3.28;;;;;;;;;;5259240;28;20017;-69
2022/08/25 04:27:36;;;;;;;7.90;4.00;;;;;;;;;;5259259;28;20021;-68
2022/08/25 04:30:07;;;;;;;10.65;4.05;;;;;;;;;;5259822;28;20397;-68
2022/08/25 04:32:39;;;;;;;8.45;4.25;;;;;;;;;;5258949;28;20070;-68
2022/08/25 04:35:10;;;;;;;7.75;3.85;;;;;;;;;;5259968;28;20044;-68
2022/08/25 04:37:41;;;;;;;9.53;4.60;;;;;;;;;;5258568;28;20031;-68
2022/08/25 04:40:12;;;;;;;6.73;4.00;;;;;;;;;;5259862;28;20051;-68
2022/08/25 04:42:43;;;;;;;8.97;3.20;;;;;;;;;;5259837;28;20612;-69
2022/08/25 04:45:15;;;;;;;5.63;2.95;;;;;;;;;;5258404;28;20264;-69
2022/08/25 04:47:46;;;;;;;7.67;3.63;;;;;;;;;;5259100;28;20027;-69
2022/08/25 04:50:17;;;;;;;6.67;3.03;;;;;;;;;;5259710;28;20294;-69
2022/08/25 04:52:48;;;;;;;11.10;3.50;;;;;;;;;;5258255;28;20014;-68
2022/08/25 04:55:19;;;;;;;9.10;2.80;;;;;;;;;;5259653;28;20087;-69
2022/08/25 04:57:50;;;;;;;5.60;2.83;;;;;;;;;;5259272;28;20311;-68
2022/08/25 05:00:22;;;;;;;10.65;3.10;;;;;;;;;;5259214;28;20267;-67
2022/08/25 05:02:54;;;;;;;9.03;2.63;;;;;;;;;;5259036;28;20084;-68
2022/08/25 05:05:25;;;;;;;9.85;2.97;;;;;;;;;;5259167;28;20279;-68
2022/08/25 05:07:56;;;;;;;7.63;2.58;;;;;;;;;;5258833;28;20477;-67
2022/08/25 05:10:27;;;;;;;7.00;2.75;;;;;;;;;;5258853;28;20536;-68
2022/08/25 05:12:59;;;;;;;7.03;2.73;;;;;;;;;;5258613;28;20464;-68
2022/08/25 05:18:21;;;;;;;8.75;2.40;;;;;;;;;;5259339;28;20220;-68
2022/08/25 05:20:55;;;;;;;6.68;2.28;;;;;;;;;;5257980;28;20017;-67
2022/08/25 05:23:26;;;;;;;6.78;2.70;;;;;;;;;;5258630;28;20071;-68
2022/08/25 05:26:00;;;;;;;7.53;2.50;;;;;;;;;;5259318;28;20020;-68
2022/08/25 05:28:32;;;;;;;5.85;1.92;;;;;;;;;;5257853;28;20350;-68
2022/08/25 05:31:03;;;;;;;5.30;2.33;;;;;;;;;;5258951;28;20048;-68
2022/08/25 05:33:35;;;;;;;8.68;2.20;;;;;;;;;;5258604;28;20776;-68
2022/08/25 05:36:07;;;;;;;8.35;2.30;;;;;;;;;;5258262;28;20017;-68
2022/08/25 05:38:39;;;;;;;7.05;3.10;;;;;;;;;;5258344;28;20040;-68
2022/08/25 05:41:12;;;;;;;8.15;2.15;;;;;;;;;;5258623;28;20123;-68
2022/08/25 05:43:44;;;;;;;6.25;2.20;;;;;;;;;;5258671;28;20031;-68
2022/08/25 05:46:16;;;;;;;6.22;1.67;;;;;;;;;;5259025;28;20029;-68
2022/08/25 05:48:48;;;;;;;7.07;2.10;;;;;;;;;;5259257;28;20079;-67
2022/08/25 05:51:20;;;;;;;6.45;1.92;;;;;;;;;;5277969;28;20510;-68
2022/08/25 05:53:51;;;;;;;7.45;1.45;;;;;;;;;;5279056;28;20024;-68
2022/08/25 05:56:22;;;;;;;6.15;1.60;;;;;;;;;;5279933;28;20120;-68
2022/08/25 05:58:53;;;;;;;4.65;1.70;;;;;;;;;;5282865;28;20095;-68
2022/08/25 06:04:16;;;;;;;4.45;1.48;;;;;;;;;;5278534;28;20052;-68
2022/08/25 06:06:48;;;;;;;4.90;1.45;;;;;;;;;;5283345;28;20411;-68
2022/08/25 06:09:20;;;;;;;5.70;1.40;;;;;;;;;;5283114;28;20108;-68
2022/08/25 06:11:51;;;;;;;6.05;1.80;;;;;;;;;;5282899;28;20140;-68
2022/08/25 06:14:23;;;;;;;6.88;1.52;;;;;;;;;;5283790;28;20021;-68
2022/08/25 06:16:55;;;;;;;10.30;1.85;;;;;;;;;;5282672;28;20446;-69
2022/08/25 06:19:26;;;;;;;7.70;2.00;;;;;;;;;;5283152;28;20026;-69
2022/08/25 06:21:58;;;;;;;8.57;2.13;;;;;;;;;;5283646;28;20020;-68
2022/08/25 06:24:29;;;;;;;4.10;1.30;;;;;;;;;;5282210;28;20274;-68
2022/08/25 06:27:00;;;;;;;5.97;1.50;;;;;;;;;;5283614;28;20036;-69
2022/08/25 06:29:31;;;;;;;6.03;1.52;;;;;;;;;;5282816;28;20302;-73
2022/08/25 06:32:03;;;;;;;10.87;1.60;;;;;;;;;;5282579;28;20038;-67
2022/08/25 06:34:34;;;;;;;7.32;1.35;;;;;;;;;;5282746;28;20274;-69
2022/08/25 06:37:05;;;;;;;6.55;1.40;;;;;;;;;;5283013;28;20074;-68
2022/08/25 06:39:36;;;;;;;7.07;1.50;;;;;;;;;;5281686;28;20029;-67
2022/08/25 06:42:08;;;;;;;8.00;2.00;;;;;;;;;;5283042;28;20270;-70
2022/08/25 06:44:39;;;;;;;7.32;1.48;;;;;;;;;;5281589;28;20021;-67
2022/08/25 06:47:11;;;;;;;7.45;1.30;;;;;;;;;;5281941;28;20073;-67
2022/08/25 06:49:43;;;;;;;7.88;1.70;;;;;;;;;;5281961;28;20036;-68
2022/08/25 06:52:14;;;;;;;5.13;1.38;;;;;;;;;;5281500;28;20050;-67
2022/08/25 06:54:46;;;;;;;8.75;2.25;;;;;;;;;;5282193;28;20543;-68
2022/08/25 06:57:17;;;;;;;6.80;1.40;;;;;;;;;;5282789;28;20012;-67
2022/08/25 06:59:48;;;;;;;5.50;1.50;;;;;;;;;;5281135;28;20032;-67
2022/08/25 07:02:19;;;;;;;10.23;1.80;;;;;;;;;;5282249;28;20294;-67
2022/08/25 07:04:52;;;;;;;8.13;1.57;;;;;;;;;;5282010;28;20169;-67
2022/08/25 07:07:23;;;;;;;7.75;1.63;;;;;;;;;;5281094;28;20267;-68
2022/08/25 07:09:54;;;;;;;7.95;1.52;;;;;;;;;;5281432;28;20024;-68
2022/08/25 07:12:26;;;;;;;4.22;1.98;;;;;;;;;;5280759;28;20143;-68
2022/08/25 07:14:57;;;;;;;7.43;1.77;;;;;;;;;;5282439;28;20519;-68
2022/08/25 07:17:29;;;;;;;5.20;1.07;;;;;;;;;;5281789;28;20017;-68
2022/08/25 07:20:00;;;;;;;6.82;1.42;;;;;;;;;;5281478;28;20302;-68
2022/08/25 07:22:31;;;;;;;5.18;1.33;;;;;;;;;;5281516;28;20350;-68
2022/08/25 07:25:03;;;;;;;6.82;1.35;;;;;;;;;;5282104;28;20017;-68
2022/08/25 07:27:34;;;;;;;7.57;1.08;;;;;;;;;;5280587;28;20024;-68
2022/08/25 07:30:06;;;;;;;4.77;1.40;;;;;;;;;;5282098;28;20027;-68
2022/08/25 07:32:37;;;;;;;7.07;1.33;;;;;;;;;;5281517;28;20336;-69
2022/08/25 07:35:14;;;;;;;10.87;1.47;;;;;;;;;;5281399;28;20016;-68
2022/08/25 07:37:47;;;;;;;4.05;1.17;;;;;;;;;;5281159;28;20033;-68
2022/08/25 07:40:21;;;;;;;6.43;1.00;;;;;;;;;;5281792;28;20013;-68
2022/08/25 07:42:54;;;;;;;11.27;1.17;;;;;;;;;;5280428;28;20040;-68
2022/08/25 07:45:29;;;;;;;4.75;1.15;;;;;;;;;;5280730;28;20020;-68
2022/08/25 07:48:01;;;;;;;3.40;1.05;;;;;;;;;;5280271;28;20424;-71
2022/08/25 07:50:33;;;;;;;10.13;1.00;;;;;;;;;;5281150;28;20360;-69
2022/08/25 07:53:04;;;;;;;5.28;0.90;;;;;;;;;;5281697;28;20016;-68
2022/08/25 07:55:35;;;;;;;4.65;0.80;;;;;;;;;;5280304;28;20027;-71
2022/08/25 07:58:08;;;;;;;6.28;1.23;;;;;;;;;;5281553;28;20164;-71
2022/08/25 08:00:40;;;;;;;5.47;1.02;;;;;;;;;;5280829;28;20032;-72
2022/08/25 08:03:11;;;;;;;8.18;1.05;;;;;;;;;;5280568;28;20509;-71
2022/08/25 08:05:42;;;;;;;6.10;0.80;;;;;;;;;;5280920;28;20061;-68
2022/08/25 08:08:14;;;;;;;8.77;1.07;;;;;;;;;;5281355;28;20350;-68
2022/08/25 08:10:45;;;;;;;5.07;1.00;;;;;;;;;;5280532;28;20336;-69
2022/08/25 08:13:16;;;;;;;7.93;0.70;;;;;;;;;;5281363;28;20063;-69
2022/08/25 08:15:47;;;;;;;3.15;0.88;;;;;;;;;;5280090;28;20769;-67
2022/08/25 08:18:19;;;;;;;7.53;0.90;;;;;;;;;;5280966;28;20328;-68
2022/08/25 08:20:50;;;;;;;4.67;1.00;;;;;;;;;;5280411;28;20028;-68
2022/08/25 08:23:26;;;;;;;6.00;1.30;;;;;;;;;;5280126;28;20269;-68
2022/08/25 08:25:57;;;;;;;5.78;0.82;;;;;;;;;;5280951;28;20275;-68
2022/08/25 08:28:28;;;;;;;7.17;1.00;;;;;;;;;;5280334;28;20057;-68
2022/08/25 08:31:00;;;;;;;11.27;1.02;;;;;;;;;;5279970;28;20427;-68
2022/08/25 08:33:32;;;;;;;7.32;1.30;;;;;;;;;;5280147;28;20013;-68
2022/08/25 08:36:05;;;;;;;3.83;1.15;;;;;;;;;;5280931;28;20031;-68
2022/08/25 08:38:37;;;;;;;6.10;1.00;;;;;;;;;;5279042;28;20021;-68
2022/08/25 08:44:18;;;;;;;4.95;1.20;;;;;;;;;;5280123;28;20032;-68
2022/08/25 08:46:58;;;;;;;6.63;0.98;;;;;;;;;;5280355;28;20043;-68
2022/08/25 08:49:36;;;;;;;3.47;1.00;;;;;;;;;;5279960;28;20032;-69
2022/08/25 08:52:08;;;;;;;;;;;;;;;;;;5279993;28;20040;-68
2022/08/25 08:54:40;;;;;;;6.72;1.00;;;;;;;;;;5274723;28;19955;-68
2022/08/25 08:57:16;;;;;;;9.13;1.85;;;;;;;;;;5280178;28;20128;-70
2022/08/25 08:59:53;;;;;;;7.40;1.23;;;;;;;;;;5278823;28;20036;-69
2022/08/25 09:02:27;;;;;;;6.85;1.00;;;;;;;;;;5279763;28;20070;-68
2022/08/25 09:05:05;;;;;;;8.30;1.10;;;;;;;;;;5279408;28;20177;-68
2022/08/25 09:07:40;;;;;;;4.22;0.80;;;;;;;;;;5279691;28;20020;-69
2022/08/25 09:10:11;;;;;;;4.55;0.85;;;;;;;;;;5280319;28;20119;-69
2022/08/25 09:12:56;;;;;;;6.50;0.70;;;;;;;;;;5278824;28;20091;-69
2022/08/25 09:16:53;;;;;;;3.97;1.05;;;;;;;;;;5279673;28;20070;-69
2022/08/25 09:18:25;;;;;;;6.03;1.23;;;;;;;;;;5280136;28;20051;-68
2022/08/25 09:21:01;;;;;;;4.83;1.00;;;;;;;;;;5279498;28;20072;-68
2022/08/25 09:23:33;;;;;;;6.07;0.80;;;;;;;;;;5279750;28;20384;-69
2022/08/25 09:26:24;;;;;;;14.27;1.37;;;;;;;;;;5279574;28;20101;-69
2022/08/25 09:29:06;;;;;;;6.22;0.90;;;;;;;;;;5279710;28;20294;-69
2022/08/25 09:31:39;;;;;;;2.85;0.65;;;;;;;;;;5280807;28;20471;-69
2022/08/25 09:34:11;;;;;;;4.40;0.65;;;;;;;;;;5283590;28;20472;-69
2022/08/25 09:36:44;;;;;;;6.18;0.82;;;;;;;;;;5284047;28;20544;-69
2022/08/25 09:39:16;;;;;;;5.55;0.70;;;;;;;;;;5284528;28;20048;-69
2022/08/25 09:41:48;;;;;;;5.88;0.60;;;;;;;;;;5283348;28;20114;-69
2022/08/25 09:44:24;;;;;;;4.75;0.52;;;;;;;;;;5284098;28;20021;-69
2022/08/25 09:47:00;;;;;;;5.53;0.70;;;;;;;;;;5283907;28;20320;-69
2022/08/25 09:49:39;;;;;;;2.50;0.70;;;;;;;;;;5282761;28;20031;-69
2022/08/25 09:52:16;;;;;;;3.10;0.52;;;;;;;;;;5284455;28;20021;-69
2022/08/25 09:54:49;;;;;;;2.58;0.52;;;;;;;;;;5282823;28;20032;-69
2022/08/25 09:57:27;;;;;;;4.80;0.93;;;;;;;;;;5284174;28;20576;-69
2022/08/25 10:00:11;;;;;;;4.18;0.70;;;;;;;;;;5284165;28;20107;-69
2022/08/25 10:02:44;;;;;;;2.97;0.57;;;;;;;;;;5282257;28;20728;-69
2022/08/25 10:05:25;;;;;;;9.82;0.88;;;;;;;;;;5283588;28;20100;-69
2022/08/25 10:07:58;;;;;;;4.25;0.40;;;;;;;;;;5283611;28;20031;-69
2022/08/25 10:10:31;;;;;;;2.30;0.50;;;;;;;;;;5282259;28;20025;-69
2022/08/25 10:13:10;;;;;;;1.38;0.40;;;;;;;;;;5283563;28;20383;-69
2022/08/25 10:15:42;;;;;;;5.28;0.60;;;;;;;;;;5282199;28;20032;-69
2022/08/25 10:18:21;;;;;;;3.33;0.60;;;;;;;;;;5283605;28;20084;-69
2022/08/25 10:21:04;;;;;;;2.95;0.50;;;;;;;;;;5283470;28;20039;-69
2022/08/25 10:23:37;;;;;;;3.65;0.50;;;;;;;;;;5282543;28;20039;-69
2022/08/25 10:26:15;;;;;;;1.15;0.47;;;;;;;;;;5283851;28;20012;-69
2022/08/25 10:28:53;;;;;;;2.00;0.40;;;;;;;;;;5283187;28;20064;-69
2022/08/25 10:31:29;;;;;;;4.65;0.50;;;;;;;;;;5282879;28;20174;-69
2022/08/25 10:34:24;;;;;;;3.72;0.50;;;;;;;;;;5283927;28;20472;-69
2022/08/25 10:37:09;;;;;;;4.00;0.40;;;;;;;;;;5282890;28;20024;-69
2022/08/25 10:39:59;;;;;;;3.35;0.50;;;;;;;;;;5282874;28;20111;-70
2022/08/25 10:42:49;;;;;;;4.95;0.60;;;;;;;;;;5282212;28;20024;-69
2022/08/25 10:48:34;;;;;;;7.35;0.60;;;;;;;;;;5283850;28;20032;-69
2022/08/25 10:51:09;;;;;;;3.22;0.50;;;;;;;;;;5282718;28;20094;-69
2022/08/25 10:54:19;;;;;;;5.65;0.57;;;;;;;;;;5282956;28;20017;-69
2022/08/25 10:56:53;;;;;;;3.38;0.50;;;;;;;;;;5177578;28;20026;-69
2022/08/25 10:59:30;;;;;;;4.80;0.80;;;;;;;;;;5177244;28;20402;-70
2022/08/25 11:02:04;;;;;;;5.50;0.60;;;;;;;;;;5242610;28;20488;-68
2022/08/25 11:04:44;;;;;;;3.22;0.70;;;;;;;;;;5281964;28;20115;-69
2022/08/25 11:07:28;;;;;;;2.05;0.70;;;;;;;;;;5283245;28;20040;-68
2022/08/25 11:10:05;;;;;;;4.50;0.82;;;;;;;;;;5279423;28;20111;-69
2022/08/25 11:12:44;;;;;;;4.27;0.60;;;;;;;;;;5281580;28;20024;-69
2022/08/25 11:15:22;;;;;;;3.55;0.75;;;;;;;;;;5283089;28;20091;-68
2022/08/25 11:17:56;;;;;;;5.15;0.60;;;;;;;;;;5282033;28;20024;-69
2022/08/25 11:20:32;;;;;;;4.00;0.73;;;;;;;;;;5281509;28;20096;-69
2022/08/25 11:23:03;;;;;;;3.35;0.50;;;;;;;;;;5283040;28;20028;-69
2022/08/25 11:25:37;;;;;;;2.97;0.70;;;;;;;;;;5281894;28;20376;-69
2022/08/25 11:28:11;;;;;;;4.20;0.60;;;;;;;;;;5279521;28;20032;-68
2022/08/25 11:30:43;;;;;;;5.18;0.50;;;;;;;;;;5281721;28;20518;-69
2022/08/25 11:33:15;;;;;;;4.00;0.45;;;;;;;;;;5282378;28;20447;-69
2022/08/25 11:35:53;;;;;;;4.63;0.60;;;;;;;;;;5282231;28;20368;-68
2022/08/25 11:38:39;;;;;;;4.72;0.73;;;;;;;;;;5282494;28;20349;-68
2022/08/25 11:41:28;;;;;;;4.93;0.70;;;;;;;;;;5281899;28;20496;-68
2022/08/25 11:44:21;;;;;;;5.03;0.60;;;;;;;;;;5282337;28;20047;-70
2022/08/25 11:46:53;;;;;;;8.75;0.60;;;;;;;;;;5281129;28;20048;-70
2022/08/25 11:49:24;;;;;;;5.47;0.80;;;;;;;;;;5282167;28;20075;-69
2022/08/25 11:51:55;;;;;;;4.33;0.50;;;;;;;;;;5281591;28;20047;-69
2022/08/25 11:54:28;;;;;;;7.13;0.67;;;;;;;;;;5280445;28;20459;-70
2022/08/25 11:57:03;;;;;;;6.07;0.70;;;;;;;;;;5281719;28;20024;-67
2022/08/25 11:59:50;;;;;;;4.88;0.60;;;;;;;;;;5280833;28;20020;-68
2022/08/25 12:02:35;;;;;;;1.80;0.50;;;;;;;;;;5280997;28;20407;-68
2022/08/25 12:05:30;;;;;;;3.10;0.47;;;;;;;;;;5281760;28;20025;-68
2022/08/25 12:10:58;;;;;;;5.05;0.50;;;;;;;;;;5281316;28;20020;-69
2022/08/25 12:13:41;;;;;;;5.65;0.50;;;;;;;;;;5280817;28;20159;-68
2022/08/25 12:16:37;;;;;;;3.15;0.50;;;;;;;;;;5280465;28;20029;-68
2022/08/25 12:19:23;;;;;;;5.70;0.68;;;;;;;;;;5280536;28;20048;-69
2022/08/25 12:22:00;;;;;;;2.65;0.50;;;;;;;;;;5279646;28;20054;-69
2022/08/25 12:24:45;;;;;;;4.20;0.60;;;;;;;;;;5280460;28;20442;-69
2022/08/25 12:27:37;;;;;;;2.63;0.68;;;;;;;;;;5281281;28;20037;-68
2022/08/25 12:30:14;;;;;;;3.85;0.93;;;;;;;;;;5280335;28;20037;-68
2022/08/25 12:33:04;;;;;;;4.53;0.60;;;;;;;;;;5279854;28;20020;-69
2022/08/25 12:35:52;;;;;;;3.28;0.60;;;;;;;;;;5280113;28;20066;-68
2022/08/25 12:38:29;;;;;;;4.05;0.70;;;;;;;;;;5280154;28;20024;-68
2022/08/25 12:41:08;;;;;;;3.88;0.50;;;;;;;;;;5280286;28;20016;-69
2022/08/25 12:43:40;;;;;;;3.72;0.60;;;;;;;;;;5276513;28;20029;-69
2022/08/25 12:46:18;;;;;;;5.22;0.60;;;;;;;;;;5280914;28;20023;-69
2022/08/25 12:49:03;;;;;;;4.90;0.45;;;;;;;;;;5280200;28;20039;-68
2022/08/25 12:51:34;;;;;;;2.72;0.60;;;;;;;;;;5276461;28;20069;-69
2022/08/25 12:54:38;;;;;;;3.17;0.70;;;;;;;;;;5280335;28;20036;-69
2022/08/25 12:57:20;;;;;;;1.63;0.50;;;;;;;;;;5224669;28;20032;-69
2022/08/25 12:59:52;;;;;;;3.08;0.60;;;;;;;;;;5279927;28;20023;-69
2022/08/25 13:02:38;;;;;;;2.53;0.50;;;;;;;;;;5280297;28;20040;-68
2022/08/25 13:05:24;;;;;;;6.65;0.60;;;;;;;;;;5279948;28;20050;-67
2022/08/25 13:08:14;;;;;;;4.22;0.60;;;;;;;;;;5280011;28;20028;-68
2022/08/25 13:10:45;;;;;;;2.47;0.50;;;;;;;;;;5280092;28;20028;-68
2022/08/25 13:13:22;;;;;;;1.60;0.57;;;;;;;;;;5280274;28;20020;-68
2022/08/25 13:15:58;;;;;;;2.20;0.60;;;;;;;;;;5280325;28;20458;-68
2022/08/25 13:18:31;;;;;;;3.92;0.40;;;;;;;;;;5279502;28;20025;-69
2022/08/25 13:21:17;;;;;;;6.15;0.50;;;;;;;;;;5280468;28;20031;-68
2022/08/25 13:23:50;;;;;;;3.38;0.50;;;;;;;;;;5280169;28;20110;-69
2022/08/25 13:26:31;;;;;;;3.03;0.60;;;;;;;;;;5279966;28;20021;-68
2022/08/25 13:29:12;;;;;;;5.15;0.60;;;;;;;;;;5280221;28;20051;-68
2022/08/25 13:31:57;;;;;;;5.97;0.60;;;;;;;;;;5279459;28;20103;-67
2022/08/25 13:34:31;;;;;;;4.40;0.70;;;;;;;;;;5279052;28;20017;-68
2022/08/25 13:40:18;;;;;;;4.72;0.50;;;;;;;;;;5276105;28;20040;-68
2022/08/25 13:42:50;;;;;;;5.70;0.60;;;;;;;;;;5279417;28;20036;-68
2022/08/25 13:45:23;;;;;;;4.38;0.50;;;;;;;;;;5279929;28;20028;-68
2022/08/25 13:47:55;;;;;;;3.28;0.50;;;;;;;;;;5278646;28;20368;-68
2022/08/25 13:50:27;;;;;;;7.32;0.68;;;;;;;;;;5276121;28;20107;-68
2022/08/25 13:53:16;;;;;;;2.05;0.55;;;;;;;;;;5279942;28;20046;-68
2022/08/25 13:55:57;;;;;;;5.57;0.60;;;;;;;;;;5279030;28;20082;-70
2022/08/25 13:58:30;;;;;;;7.28;0.68;;;;;;;;;;5279217;28;20090;-68
2022/08/25 14:01:01;;;;;;;3.63;0.80;;;;;;;;;;5279370;28;20035;-68
2022/08/25 14:03:34;;;;;;;3.13;0.50;;;;;;;;;;5278922;28;20120;-68
2022/08/25 14:06:10;;;;;;;4.40;0.45;;;;;;;;;;5279913;28;20521;-68
2022/08/25 14:08:43;;;;;;;4.68;0.70;;;;;;;;;;5278659;28;20357;-68
2022/08/25 14:11:27;;;;;;;4.78;0.50;;;;;;;;;;5279950;28;20103;-69
2022/08/25 14:14:03;;;;;;;2.05;0.47;;;;;;;;;;5280301;28;20094;-68
2022/08/25 14:16:37;;;;;;;3.15;0.50;;;;;;;;;;5278846;28;20057;-69
2022/08/25 14:19:13;;;;;;;3.42;0.70;;;;;;;;;;5283392;28;20031;-68
2022/08/25 14:21:44;;;;;;;4.80;0.50;;;;;;;;;;5282388;28;20056;-68
2022/08/25 14:24:16;;;;;;;5.60;0.60;;;;;;;;;;5283768;28;20071;-69
2022/08/25 14:26:48;;;;;;;4.05;0.60;;;;;;;;;;5282914;28;20024;-69
2022/08/25 14:29:20;;;;;;;4.43;0.60;;;;;;;;;;5282682;28;20473;-68
2022/08/25 14:31:51;;;;;;;3.22;0.60;;;;;;;;;;5282631;28;20016;-69
2022/08/25 14:34:28;;;;;;;4.10;0.80;;;;;;;;;;5283502;28;20021;-71
2022/08/25 14:36:59;;;;;;;4.72;0.57;;;;;;;;;;5282702;28;20274;-70
2022/08/25 14:39:30;;;;;;;5.93;0.50;;;;;;;;;;5282160;28;20021;-70
2022/08/25 14:42:01;;;;;;;4.67;0.50;;;;;;;;;;5282317;28;20025;-69
2022/08/25 14:44:32;;;;;;;2.63;0.60;;;;;;;;;;5280161;28;20273;-69
2022/08/25 14:47:05;;;;;;;5.13;0.63;;;;;;;;;;5283011;28;20047;-69
2022/08/25 14:49:39;;;;;;;2.63;0.60;;;;;;;;;;5281704;28;20032;-71
2022/08/25 14:52:27;;;;;;;3.75;0.60;;;;;;;;;;5283090;28;20028;-69
2022/08/25 14:54:58;;;;;;;2.30;0.60;;;;;;;;;;5282859;28;20344;-68
2022/08/25 14:57:30;;;;;;;3.20;0.60;;;;;;;;;;5281733;28;20021;-69
2022/08/25 15:00:01;;;;;;;2.27;0.50;;;;;;;;;;5283223;28;20012;-70
2022/08/25 15:02:34;;;;;;;1.98;0.60;;;;;;;;;;5282099;28;20290;-70
2022/08/25 15:05:07;;;;;;;4.53;0.80;;;;;;;;;;5280358;28;20033;-70
2022/08/25 15:10:28;;;;;;;3.08;0.50;;;;;;;;;;5282511;28;20033;-70
2022/08/25 15:12:59;;;;;;;9.68;0.70;;;;;;;;;;5282170;28;20016;-70
2022/08/25 15:15:31;;;;;;;4.10;0.70;;;;;;;;;;5282510;28;20029;-70
2022/08/25 15:18:03;;;;;;;7.28;0.63;;;;;;;;;;5282166;28;20353;-70
2022/08/25 15:20:34;;;;;;;8.48;0.60;;;;;;;;;;5282300;28;20024;-70
2022/08/25 15:23:07;;;;;;;5.70;0.60;;;;;;;;;;5282741;28;20027;-70
2022/08/25 15:25:39;;;;;;;5.88;0.60;;;;;;;;;;5281515;28;20285;-70
2022/08/25 15:28:11;;;;;;;5.38;0.75;;;;;;;;;;5282564;28;20024;-70
2022/08/25 15:30:42;;;;;;;2.33;0.57;;;;;;;;;;5281812;28;20494;-70
2022/08/25 15:33:14;;;;;;;2.38;0.50;;;;;;;;;;5282145;28;20048;-69
2022/08/25 15:35:45;;;;;;;3.37;0.50;;;;;;;;;;5282304;28;20082;-69
2022/08/25 15:38:16;;;;;;;2.60;0.50;;;;;;;;;;5282508;28;20020;-71
2022/08/25 15:40:47;;;;;;;3.92;0.80;;;;;;;;;;5281038;28;20013;-70
2022/08/25 15:43:18;;;;;;;4.43;0.60;;;;;;;;;;5282923;28;20021;-69
2022/08/25 15:45:50;;;;;;;3.38;0.57;;;;;;;;;;5281556;28;20016;-69